createdAt,value
2017-10-20T00:01:28.808Z,95.50
2017-10-20T00:03:57.054Z,95.40
2017-10-20T00:06:24.488Z,95.40
2017-10-20T00:08:51.940Z,95.30
2017-10-20T00:11:19.366Z,95.40
2017-10-20T00:13:47.582Z,95.40
2017-10-20T00:16:15.026Z,95.40
2017-10-20T00:18:42.466Z,95.30
2017-10-20T00:21:09.896Z,95.30
2017-10-20T00:23:38.116Z,95.20
2017-10-20T00:26:05.546Z,95.20
2017-10-20T00:28:32.996Z,95.20
2017-10-20T00:31:01.207Z,95.30
2017-10-20T00:33:28.661Z,95.30
2017-10-20T00:35:56.098Z,95.30
2017-10-20T00:38:23.537Z,95.40
2017-10-20T00:40:51.749Z,95.70
2017-10-20T00:43:19.206Z,95.70
2017-10-20T00:45:47.409Z,95.70
2017-10-20T00:48:14.857Z,95.70
2017-10-20T00:50:42.296Z,95.90
2017-10-20T00:53:09.753Z,95.90
2017-10-20T00:55:37.189Z,95.90
2017-10-20T00:58:04.633Z,95.90
2017-10-20T01:00:32.848Z,95.90
2017-10-20T01:03:00.305Z,95.90
2017-10-20T01:05:27.741Z,95.80
2017-10-20T01:07:55.181Z,95.60
2017-10-20T01:10:23.386Z,95.60
2017-10-20T01:12:50.826Z,95.60
2017-10-20T01:15:18.311Z,95.60
2017-10-20T01:17:45.733Z,95.50
2017-10-20T01:20:13.171Z,95.50
2017-10-20T01:22:40.850Z,95.50
2017-10-20T01:25:08.282Z,95.50
2017-10-20T01:27:35.721Z,95.40
2017-10-20T01:30:03.166Z,95.60
2017-10-20T01:32:30.617Z,95.60
2017-10-20T01:34:58.045Z,95.50
2017-10-20T01:37:25.479Z,95.60
2017-10-20T01:39:53.693Z,95.90
2017-10-20T01:42:21.129Z,95.90
2017-10-20T01:44:48.577Z,96.10
2017-10-20T01:47:16.014Z,96.20
2017-10-20T01:49:43.453Z,96.10
2017-10-20T01:52:10.881Z,96.00
2017-10-20T01:54:38.317Z,96.00
2017-10-20T01:57:05.745Z,95.90
2017-10-20T01:59:33.950Z,96.00
2017-10-20T02:02:01.381Z,95.70
2017-10-20T02:04:33.956Z,95.70
2017-10-20T02:07:02.164Z,95.50
2017-10-20T02:09:30.603Z,95.50
2017-10-20T02:11:58.804Z,95.50
2017-10-20T02:14:26.240Z,95.50
2017-10-20T02:16:54.455Z,95.30
2017-10-20T02:19:21.877Z,95.30
2017-10-20T02:21:50.074Z,95.30
2017-10-20T02:24:17.517Z,95.30
2017-10-20T02:26:44.949Z,95.30
2017-10-20T02:29:12.384Z,95.30
2017-10-20T02:31:39.817Z,95.30
2017-10-20T02:34:07.255Z,95.10
2017-10-20T02:36:34.689Z,95.10
2017-10-20T02:39:02.896Z,95.20
2017-10-20T02:41:30.324Z,95.50
2017-10-20T02:43:58.533Z,95.10
2017-10-20T02:46:26.020Z,95.10
2017-10-20T02:48:53.451Z,95.10
2017-10-20T02:51:20.887Z,95.00
2017-10-20T02:53:48.314Z,95.00
2017-10-20T02:56:16.521Z,95.30
2017-10-20T02:58:43.957Z,95.00
2017-10-20T03:01:13.149Z,95.20
2017-10-20T03:03:41.352Z,95.30
2017-10-20T03:06:08.784Z,95.30
2017-10-20T03:08:36.996Z,95.50
2017-10-20T03:11:04.424Z,95.50
2017-10-20T03:13:31.862Z,95.50
2017-10-20T03:15:59.289Z,95.50
2017-10-20T03:18:26.724Z,95.40
2017-10-20T03:20:54.162Z,95.40
2017-10-20T03:23:21.601Z,95.30
2017-10-20T03:25:49.807Z,95.30
2017-10-20T03:28:18.145Z,95.30
2017-10-20T03:30:46.346Z,95.60
2017-10-20T03:33:13.792Z,95.60
2017-10-20T03:35:41.996Z,95.60
2017-10-20T03:38:09.436Z,95.60
2017-10-20T03:40:36.868Z,95.80
2017-10-20T03:43:05.083Z,96.10
2017-10-20T03:45:32.528Z,96.00
2017-10-20T03:47:59.960Z,96.20
2017-10-20T03:50:27.417Z,96.20
2017-10-20T03:52:55.629Z,96.30
2017-10-20T03:55:23.073Z,96.30
2017-10-20T03:57:50.508Z,96.10
2017-10-20T04:00:18.715Z,96.30
2017-10-20T04:02:46.148Z,96.30
2017-10-20T04:05:13.584Z,96.10
2017-10-20T04:07:41.008Z,96.00
2017-10-20T04:10:08.454Z,96.00
2017-10-20T04:12:35.891Z,96.20
2017-10-20T04:15:03.335Z,96.10
2017-10-20T04:17:30.760Z,96.20
2017-10-20T04:19:58.201Z,96.00
2017-10-20T04:22:25.637Z,96.00
2017-10-20T04:24:53.075Z,96.00
2017-10-20T04:27:20.512Z,96.10
2017-10-20T04:29:48.724Z,96.20
2017-10-20T04:32:16.164Z,96.10
2017-10-20T04:34:43.613Z,96.00
2017-10-20T04:37:11.805Z,96.00
2017-10-20T04:39:39.241Z,96.10
2017-10-20T04:42:07.243Z,95.90
2017-10-20T04:44:34.684Z,95.80
2017-10-20T04:47:02.112Z,95.90
2017-10-20T04:49:29.572Z,95.80
2017-10-20T04:51:57.012Z,95.80
2017-10-20T04:54:25.220Z,96.10
2017-10-20T04:56:52.644Z,96.10
2017-10-20T04:59:20.861Z,96.40
2017-10-20T05:01:48.289Z,96.40
2017-10-20T05:04:16.493Z,96.40
2017-10-20T05:06:44.741Z,96.40
2017-10-20T05:09:12.179Z,96.50
2017-10-20T05:11:39.612Z,96.40
2017-10-20T05:14:07.053Z,96.30
2017-10-20T05:16:34.489Z,96.20
2017-10-20T05:19:01.915Z,96.10
2017-10-20T05:21:30.127Z,96.20
2017-10-20T05:23:57.572Z,96.20
2017-10-20T05:26:24.995Z,96.10
2017-10-20T05:28:53.214Z,96.10
2017-10-20T05:31:20.657Z,96.00
2017-10-20T05:33:48.088Z,95.80
2017-10-20T05:36:16.285Z,95.90
2017-10-20T05:38:43.723Z,95.90
2017-10-20T05:41:11.928Z,96.00
2017-10-20T05:43:39.375Z,96.00
2017-10-20T05:46:06.806Z,95.90
2017-10-20T05:48:35.018Z,96.10
2017-10-20T05:51:02.460Z,96.10
2017-10-20T05:53:29.880Z,96.20
2017-10-20T05:55:57.316Z,96.30
2017-10-20T05:58:24.762Z,96.10
2017-10-20T06:00:52.204Z,96.10
2017-10-20T06:03:19.640Z,96.20
2017-10-20T06:05:47.843Z,96.20
2017-10-20T06:08:15.281Z,96.20
2017-10-20T06:10:42.725Z,96.20
2017-10-20T06:13:10.156Z,96.30
2017-10-20T06:15:37.603Z,96.40
2017-10-20T06:18:07.024Z,96.40
2017-10-20T06:20:35.241Z,96.40
2017-10-20T06:23:02.667Z,96.40
2017-10-20T06:25:30.874Z,96.40
2017-10-20T06:27:58.317Z,96.40
2017-10-20T06:30:25.757Z,96.40
2017-10-20T06:32:53.969Z,96.70
2017-10-20T06:35:21.406Z,96.60
2017-10-20T06:37:48.848Z,96.50
2017-10-20T06:40:17.058Z,96.40
2017-10-20T06:42:44.489Z,96.40
2017-10-20T06:45:11.924Z,96.40
2017-10-20T06:47:40.144Z,96.40
2017-10-20T06:50:07.583Z,96.40
2017-10-20T06:52:35.016Z,96.50
2017-10-20T06:55:02.461Z,96.40
2017-10-20T06:57:29.898Z,96.50
2017-10-20T06:59:57.323Z,96.60
2017-10-20T07:02:24.760Z,96.70
2017-10-20T07:04:52.212Z,96.80
2017-10-20T07:07:19.645Z,97.00
2017-10-20T07:09:47.081Z,97.10
2017-10-20T07:12:14.538Z,97.20
2017-10-20T07:14:41.976Z,97.10
2017-10-20T07:17:09.430Z,97.10
2017-10-20T07:19:42.452Z,97.00
2017-10-20T07:22:09.894Z,96.90
2017-10-20T07:24:37.328Z,97.10
2017-10-20T07:27:04.777Z,97.10
2017-10-20T07:29:32.220Z,97.10
2017-10-20T07:31:59.661Z,97.00
2017-10-20T07:34:27.868Z,96.90
2017-10-20T07:36:57.224Z,96.90
2017-10-20T07:39:25.443Z,96.90
2017-10-20T07:41:52.881Z,96.80
2017-10-20T07:44:20.316Z,96.80
2017-10-20T07:46:47.754Z,96.80
2017-10-20T07:49:15.175Z,96.80
2017-10-20T07:51:42.657Z,96.80
2017-10-20T07:54:10.837Z,97.10
2017-10-20T07:56:38.271Z,96.80
2017-10-20T07:59:05.719Z,96.70
2017-10-20T08:01:33.167Z,96.60
2017-10-20T08:04:00.607Z,96.60
2017-10-20T08:06:28.802Z,96.70
2017-10-20T08:08:56.236Z,96.70
2017-10-20T08:11:23.674Z,96.80
2017-10-20T08:13:51.884Z,96.80
2017-10-20T08:16:19.322Z,96.80
2017-10-20T08:18:46.763Z,96.70
2017-10-20T08:21:14.964Z,96.40
2017-10-20T08:23:42.397Z,96.30
2017-10-20T08:26:10.621Z,96.50
2017-10-20T08:28:38.053Z,96.50
2017-10-20T08:31:05.490Z,96.40
2017-10-20T08:33:33.745Z,96.30
2017-10-20T08:36:01.191Z,96.30
2017-10-20T08:38:28.624Z,95.90
2017-10-20T08:40:56.069Z,96.00
2017-10-20T08:43:23.498Z,96.20
2017-10-20T08:45:51.723Z,96.30
2017-10-20T08:48:19.146Z,96.30
2017-10-20T08:50:46.585Z,96.20
2017-10-20T08:53:14.782Z,96.10
2017-10-20T08:55:42.218Z,96.10
2017-10-20T08:58:09.660Z,96.00
2017-10-20T09:00:37.877Z,95.80
2017-10-20T09:03:05.312Z,95.80
2017-10-20T09:05:32.754Z,95.70
2017-10-20T09:08:00.945Z,96.20
2017-10-20T09:10:28.389Z,96.20
2017-10-20T09:12:56.600Z,96.60
2017-10-20T09:15:24.033Z,96.60
2017-10-20T09:17:51.485Z,96.30
2017-10-20T09:20:19.684Z,95.90
2017-10-20T09:22:47.122Z,95.90
2017-10-20T09:25:14.557Z,95.30
2017-10-20T09:27:42.752Z,95.40
2017-10-20T09:30:10.246Z,95.40
2017-10-20T09:32:37.661Z,96.20
2017-10-20T09:35:05.096Z,96.20
2017-10-20T09:37:33.306Z,94.80
2017-10-20T09:40:00.745Z,94.70
2017-10-20T09:42:28.949Z,94.30
2017-10-20T09:44:56.385Z,94.20
2017-10-20T09:47:23.825Z,95.20
2017-10-20T09:49:52.044Z,91.90
2017-10-20T09:52:19.479Z,91.80
2017-10-20T09:54:46.918Z,90.30
2017-10-20T09:57:15.125Z,83.90
2017-10-20T09:59:42.556Z,83.70
2017-10-20T10:02:09.992Z,80.80
2017-10-20T10:04:38.192Z,81.40
2017-10-20T10:07:06.392Z,79.20
2017-10-20T10:09:34.821Z,79.10
2017-10-20T10:12:02.258Z,77.50
2017-10-20T10:14:29.683Z,73.40
2017-10-20T10:16:57.134Z,74.40
2017-10-20T10:19:24.561Z,75.10
2017-10-20T10:21:52.779Z,79.90
2017-10-20T10:24:20.209Z,79.90
2017-10-20T10:26:47.643Z,79.40
2017-10-20T10:29:15.858Z,82.70
2017-10-20T10:31:43.288Z,82.60
2017-10-20T10:34:10.748Z,84.50
2017-10-20T10:36:38.181Z,84.10
2017-10-20T10:39:05.608Z,84.90
2017-10-20T10:41:33.069Z,87.20
2017-10-20T10:44:00.498Z,85.60
2017-10-20T10:46:27.937Z,85.50
2017-10-20T10:48:55.373Z,86.60
2017-10-20T10:51:23.589Z,86.20
2017-10-20T10:53:51.021Z,86.10
2017-10-20T10:56:18.467Z,86.60
2017-10-20T10:58:46.656Z,87.70
2017-10-20T11:01:14.090Z,87.50
2017-10-20T11:03:42.286Z,91.50
2017-10-20T11:06:21.620Z,91.50
2017-10-20T11:09:00.860Z,92.40
2017-10-20T11:11:40.125Z,92.20
2017-10-20T11:14:07.545Z,91.30
2017-10-20T11:16:34.986Z,92.00
2017-10-20T11:19:02.406Z,92.10
2017-10-20T11:21:30.810Z,91.50
2017-10-20T11:23:58.237Z,91.60
2017-10-20T11:26:27.673Z,91.50
2017-10-20T11:28:55.868Z,92.20
2017-10-20T11:31:25.246Z,92.20
2017-10-20T11:33:52.681Z,93.10
2017-10-20T11:36:20.121Z,92.30
2017-10-20T11:38:47.549Z,91.80
2017-10-20T11:41:14.976Z,91.30
2017-10-20T11:43:43.165Z,89.50
2017-10-20T11:46:10.608Z,89.90
2017-10-20T11:48:38.073Z,90.10
2017-10-20T11:51:05.506Z,90.50
2017-10-20T11:53:32.924Z,89.70
2017-10-20T11:56:00.367Z,88.80
2017-10-20T11:58:27.784Z,86.20
2017-10-20T12:00:55.230Z,90.20
2017-10-20T12:03:22.652Z,86.70
2017-10-20T12:05:50.118Z,89.90
2017-10-20T12:08:17.557Z,89.90
2017-10-20T12:10:44.976Z,89.10
2017-10-20T12:13:13.173Z,88.20
2017-10-20T12:15:40.592Z,88.20
2017-10-20T12:18:08.021Z,87.00
2017-10-20T12:20:35.456Z,90.50
2017-10-20T12:23:02.890Z,91.00
2017-10-20T12:25:31.096Z,91.10
2017-10-20T12:27:58.521Z,91.00
2017-10-20T12:30:25.945Z,91.10
2017-10-20T12:32:53.385Z,91.70
2017-10-20T12:35:20.847Z,91.10
2017-10-20T12:37:48.289Z,91.50
2017-10-20T12:40:15.720Z,91.90
2017-10-20T12:42:43.148Z,92.70
2017-10-20T12:45:11.340Z,91.70
2017-10-20T12:47:38.769Z,91.40
2017-10-20T12:50:06.195Z,91.40
2017-10-20T12:52:33.628Z,91.50
2017-10-20T12:55:01.051Z,91.20
2017-10-20T12:57:28.513Z,91.90
2017-10-20T12:59:56.701Z,90.00
2017-10-20T13:02:24.128Z,90.00
2017-10-20T13:04:51.581Z,90.40
2017-10-20T13:07:19.002Z,89.50
2017-10-20T13:09:46.444Z,89.30
2017-10-20T13:12:13.871Z,90.30
2017-10-20T13:14:42.066Z,90.10
2017-10-20T13:17:09.493Z,90.10
2017-10-20T13:19:37.696Z,89.20
2017-10-20T13:22:05.131Z,89.30
2017-10-20T13:24:33.330Z,84.90
2017-10-20T13:27:00.752Z,84.80
2017-10-20T13:29:28.955Z,83.50
2017-10-20T13:31:56.388Z,83.50
2017-10-20T13:34:24.580Z,83.30
2017-10-20T13:36:52.018Z,83.30
2017-10-20T13:39:20.218Z,82.30
2017-10-20T13:41:47.658Z,82.70
2017-10-20T13:44:15.859Z,82.90
2017-10-20T13:46:43.293Z,82.80
2017-10-20T13:49:11.479Z,81.80
2017-10-20T13:51:38.912Z,81.80
2017-10-20T13:54:07.113Z,82.10
2017-10-20T13:56:34.548Z,82.10
2017-10-20T13:59:02.746Z,81.60
2017-10-20T14:01:30.172Z,81.60
2017-10-20T14:03:58.372Z,80.80
2017-10-20T14:06:25.799Z,80.80
2017-10-20T14:08:53.219Z,81.10
2017-10-20T14:11:20.661Z,80.20
2017-10-20T14:13:48.093Z,80.60
2017-10-20T14:16:16.291Z,81.60
2017-10-20T14:18:43.708Z,81.60
2017-10-20T14:21:11.908Z,84.20
2017-10-20T14:23:39.339Z,84.30
2017-10-20T14:26:07.541Z,80.10
2017-10-20T14:28:34.980Z,80.10
2017-10-20T14:31:03.174Z,79.60
2017-10-20T14:33:30.613Z,79.60
2017-10-20T14:35:58.804Z,79.70
2017-10-20T14:38:26.240Z,79.70
2017-10-20T14:40:54.440Z,78.60
2017-10-20T14:43:21.869Z,78.60
2017-10-20T14:45:50.060Z,80.50
2017-10-20T14:48:17.489Z,80.50
2017-10-20T14:50:45.681Z,78.80
2017-10-20T14:53:13.120Z,78.80
2017-10-20T14:55:41.316Z,79.50
2017-10-20T14:58:08.768Z,79.20
2017-10-20T15:00:36.954Z,78.30
2017-10-20T15:03:04.401Z,78.30
2017-10-20T15:05:32.587Z,78.30
2017-10-20T15:08:00.025Z,78.30
2017-10-20T15:10:28.221Z,78.30
2017-10-20T15:12:55.656Z,78.20
2017-10-20T15:15:23.864Z,79.20
2017-10-20T15:17:51.292Z,79.20
2017-10-20T15:20:19.496Z,80.00
2017-10-20T15:22:46.936Z,79.90
2017-10-20T15:25:14.360Z,79.40
2017-10-20T15:27:41.794Z,79.60
2017-10-20T15:30:09.229Z,79.50
2017-10-20T15:32:36.681Z,80.20
2017-10-20T15:35:04.125Z,79.40
2017-10-20T15:37:31.542Z,80.20
2017-10-20T15:39:59.006Z,80.10
2017-10-20T15:42:26.438Z,79.90
2017-10-20T15:44:53.870Z,80.10
2017-10-20T15:47:21.302Z,80.20
2017-10-20T15:49:48.724Z,80.10
2017-10-20T15:52:16.160Z,80.20
2017-10-20T15:54:43.584Z,80.40
2017-10-20T15:57:11.012Z,81.20
2017-10-20T15:59:39.215Z,81.50
2017-10-20T16:02:06.644Z,81.50
2017-10-20T16:04:34.844Z,83.10
2017-10-20T16:07:02.271Z,83.10
2017-10-20T16:09:29.693Z,84.10
2017-10-20T16:11:57.149Z,84.40
2017-10-20T16:14:24.557Z,84.40
2017-10-20T16:16:51.998Z,85.10
2017-10-20T16:19:20.196Z,86.70
2017-10-20T16:21:47.638Z,86.00
2017-10-20T16:24:15.841Z,87.60
2017-10-20T16:26:43.270Z,87.60
2017-10-20T16:29:10.697Z,88.20
2017-10-20T16:31:38.128Z,88.50
2017-10-20T16:34:05.568Z,89.00
2017-10-20T16:36:32.993Z,88.70
2017-10-20T16:39:01.184Z,89.50
2017-10-20T16:41:28.612Z,89.50
2017-10-20T16:43:56.804Z,90.10
2017-10-20T16:46:24.231Z,90.10
2017-10-20T16:48:51.671Z,90.10
2017-10-20T16:51:19.105Z,89.90
2017-10-20T16:53:46.537Z,89.50
2017-10-20T16:56:14.036Z,89.70
2017-10-20T16:58:41.469Z,89.60
2017-10-20T17:01:08.905Z,89.70
2017-10-20T17:03:36.364Z,89.70
2017-10-20T17:06:03.798Z,89.70
2017-10-20T17:08:32.017Z,90.10
2017-10-20T17:10:59.435Z,90.00
2017-10-20T17:13:27.652Z,89.90
2017-10-20T17:15:55.104Z,89.70
2017-10-20T17:18:22.546Z,90.10
2017-10-20T17:20:50.004Z,90.20
2017-10-20T17:23:17.444Z,90.00
2017-10-20T17:25:45.624Z,90.30
2017-10-20T17:28:13.061Z,90.20
2017-10-20T17:30:41.284Z,90.40
2017-10-20T17:33:08.724Z,90.40
2017-10-20T17:35:36.156Z,90.40
2017-10-20T17:38:04.351Z,90.30
2017-10-20T17:40:31.832Z,90.30
2017-10-20T17:42:59.257Z,90.50
2017-10-20T17:45:27.445Z,90.50
2017-10-20T17:47:54.876Z,90.50
2017-10-20T17:50:23.090Z,90.80
2017-10-20T17:52:50.523Z,90.80
2017-10-20T17:55:17.982Z,90.70
2017-10-20T17:57:46.167Z,90.80
2017-10-20T18:00:13.594Z,90.80
2017-10-20T18:02:41.793Z,91.00
2017-10-20T18:05:09.213Z,91.00
2017-10-20T18:07:36.644Z,90.90
2017-10-20T18:10:07.090Z,91.10
2017-10-20T18:12:34.525Z,91.20
2017-10-20T18:15:01.971Z,91.20
2017-10-20T18:17:29.408Z,91.30
2017-10-20T18:19:56.838Z,91.20
2017-10-20T18:22:25.070Z,91.40
2017-10-20T18:24:52.497Z,91.30
2017-10-20T18:27:19.922Z,91.60
2017-10-20T18:29:48.124Z,91.80
2017-10-20T18:32:15.602Z,91.50
2017-10-20T18:34:43.036Z,91.60
2017-10-20T18:37:10.466Z,91.70
2017-10-20T18:39:38.688Z,91.40
2017-10-20T18:42:06.116Z,91.40
2017-10-20T18:44:33.549Z,91.50
2017-10-20T18:47:00.981Z,91.60
2017-10-20T18:49:28.413Z,91.60
2017-10-20T18:51:55.849Z,91.80
2017-10-20T18:54:23.277Z,91.90
2017-10-20T18:56:51.471Z,91.90
2017-10-20T18:59:18.906Z,91.90
2017-10-20T19:01:47.099Z,92.10
2017-10-20T19:04:15.305Z,92.10
2017-10-20T19:06:42.734Z,92.10
2017-10-20T19:09:10.162Z,92.20
2017-10-20T19:11:37.600Z,92.30
2017-10-20T19:14:05.072Z,92.50
2017-10-20T19:16:32.517Z,92.80
2017-10-20T19:18:59.953Z,92.80
2017-10-20T19:21:27.382Z,92.90
2017-10-20T19:23:54.821Z,92.80
2017-10-20T19:26:23.028Z,92.70
2017-10-20T19:28:50.473Z,92.70
2017-10-20T19:31:17.904Z,92.60
2017-10-20T19:33:46.114Z,93.00
2017-10-20T19:36:14.305Z,92.70
2017-10-20T19:38:41.736Z,92.70
2017-10-20T19:41:09.180Z,92.60
2017-10-20T19:43:36.609Z,92.70
2017-10-20T19:46:04.037Z,92.60
2017-10-20T19:48:31.490Z,92.40
2017-10-20T19:50:58.932Z,92.40
2017-10-20T19:53:26.368Z,92.20
2017-10-20T19:55:53.796Z,92.40
2017-10-20T19:58:21.229Z,92.30
2017-10-20T20:00:48.648Z,92.40
2017-10-20T20:03:16.097Z,92.60
2017-10-20T20:05:43.516Z,92.80
2017-10-20T20:08:10.958Z,92.80
2017-10-20T20:10:38.385Z,92.90
2017-10-20T20:13:05.820Z,93.00
2017-10-20T20:15:33.248Z,93.10
2017-10-20T20:18:00.678Z,93.50
2017-10-20T20:20:28.106Z,93.60
2017-10-20T20:22:55.535Z,93.60
2017-10-20T20:25:23.724Z,93.60
2017-10-20T20:27:51.182Z,93.60
2017-10-20T20:30:18.644Z,93.50
2017-10-20T20:32:47.501Z,93.40
2017-10-20T20:35:16.467Z,93.60
2017-10-20T20:37:43.897Z,93.50
2017-10-20T20:40:11.363Z,93.30
2017-10-20T20:42:38.792Z,93.10
2017-10-20T20:45:06.260Z,93.00
2017-10-20T20:47:33.677Z,92.90
2017-10-20T20:50:01.875Z,92.70
2017-10-20T20:52:30.076Z,92.70
2017-10-20T20:54:57.516Z,92.60
2017-10-20T20:57:24.947Z,92.60
2017-10-20T20:59:53.159Z,92.60
2017-10-20T21:02:20.581Z,92.60
2017-10-20T21:04:48.789Z,92.80
2017-10-20T21:07:16.220Z,92.80
2017-10-20T21:09:44.420Z,93.00
2017-10-20T21:12:11.849Z,93.00
2017-10-20T21:14:39.308Z,93.10
2017-10-20T21:17:07.497Z,93.10
2017-10-20T21:19:34.937Z,93.10
2017-10-20T21:22:03.154Z,92.90
2017-10-20T21:24:30.582Z,92.90
2017-10-20T21:26:58.103Z,92.80
2017-10-20T21:29:25.531Z,92.70
2017-10-20T21:31:52.972Z,92.60
2017-10-20T21:34:20.440Z,92.50
2017-10-20T21:36:47.876Z,92.70
2017-10-20T21:39:16.214Z,93.10
2017-10-20T21:41:43.626Z,93.20
2017-10-20T21:44:11.052Z,93.20
2017-10-20T21:46:38.541Z,93.10
2017-10-20T21:49:05.949Z,93.40
2017-10-20T21:51:34.136Z,93.40
2017-10-20T21:54:01.577Z,93.40
2017-10-20T21:56:29.773Z,93.20
2017-10-20T21:58:57.213Z,93.10
2017-10-20T22:01:25.450Z,93.30
2017-10-20T22:03:52.897Z,93.20
2017-10-20T22:06:20.309Z,93.10
2017-10-20T22:08:48.524Z,93.40
2017-10-20T22:11:15.950Z,93.10
2017-10-20T22:13:43.419Z,93.20
2017-10-20T22:16:10.846Z,93.30
2017-10-20T22:18:39.039Z,93.30
2017-10-20T22:21:06.530Z,93.30
2017-10-20T22:23:33.976Z,93.20
2017-10-20T22:26:01.413Z,93.30
2017-10-20T22:28:28.848Z,93.40
2017-10-20T22:30:57.046Z,93.50
2017-10-20T22:33:24.470Z,93.40
2017-10-20T22:35:51.934Z,93.50
2017-10-20T22:38:20.120Z,93.60
2017-10-20T22:40:47.550Z,93.50
2017-10-20T22:43:14.972Z,93.70
2017-10-20T22:45:42.435Z,93.70
2017-10-20T22:48:10.093Z,93.60
2017-10-20T22:50:37.525Z,93.80
2017-10-20T22:53:04.965Z,93.70
2017-10-20T22:55:32.418Z,93.70
2017-10-20T22:58:00.615Z,93.70
2017-10-20T23:00:28.036Z,93.70
2017-10-20T23:02:56.254Z,94.00
2017-10-20T23:05:23.672Z,93.80
2017-10-20T23:07:51.899Z,93.80
2017-10-20T23:10:19.327Z,93.80
2017-10-20T23:12:46.749Z,93.90
2017-10-20T23:15:14.180Z,94.20
2017-10-20T23:17:41.622Z,94.30
2017-10-20T23:20:09.072Z,94.40
2017-10-20T23:22:36.501Z,94.80
2017-10-20T23:25:04.704Z,94.70
2017-10-20T23:27:32.137Z,94.70
2017-10-20T23:29:59.578Z,94.50
2017-10-20T23:32:26.998Z,94.50
2017-10-20T23:34:54.437Z,94.60
2017-10-20T23:37:21.861Z,94.60
2017-10-20T23:39:49.306Z,94.40
2017-10-20T23:42:17.484Z,94.30
2017-10-20T23:44:45.704Z,94.50
2017-10-20T23:47:13.147Z,94.50
2017-10-20T23:49:40.597Z,94.60
2017-10-20T23:52:08.026Z,94.40
2017-10-20T23:54:36.236Z,94.70
2017-10-20T23:57:03.666Z,94.70
2017-10-20T23:59:35.401Z,94.60
